createdAt,value
2018-05-08T00:02:21.224Z,4.37
2018-05-08T00:04:49.465Z,4.67
2018-05-08T00:07:17.611Z,4.63
2018-05-08T00:09:45.740Z,4.23
2018-05-08T00:12:14.654Z,5.40
2018-05-08T00:14:42.807Z,4.77
2018-05-08T00:17:10.977Z,4.90
2018-05-08T00:19:39.153Z,4.60
2018-05-08T00:22:08.085Z,4.80
2018-05-08T00:24:36.204Z,4.07
2018-05-08T00:27:05.171Z,5.27
2018-05-08T00:29:33.317Z,4.97
2018-05-08T00:32:01.488Z,4.80
2018-05-08T00:34:29.665Z,4.90
2018-05-08T00:36:57.904Z,5.43
2018-05-08T00:39:26.052Z,4.50
2018-05-08T00:41:54.946Z,5.13
2018-05-08T00:44:23.862Z,5.10
2018-05-08T00:46:52.007Z,4.77
2018-05-08T00:49:20.921Z,4.60
2018-05-08T00:51:49.068Z,4.50
2018-05-08T00:54:17.437Z,5.77
2018-05-08T00:56:45.574Z,5.47
2018-05-08T00:59:13.762Z,5.43
2018-05-08T01:01:41.911Z,4.90
2018-05-08T01:04:10.069Z,4.70
2018-05-08T01:06:38.248Z,4.83
2018-05-08T01:09:06.415Z,5.10
2018-05-08T01:11:34.612Z,6.90
2018-05-08T01:14:02.737Z,4.37
2018-05-08T01:16:31.629Z,5.13
2018-05-08T01:18:59.780Z,4.50
2018-05-08T01:21:27.954Z,5.40
2018-05-08T01:23:56.117Z,4.70
2018-05-08T01:26:24.252Z,4.93
2018-05-08T01:28:52.475Z,5.07
2018-05-08T01:31:21.389Z,5.10
2018-05-08T01:33:49.933Z,5.20
2018-05-08T01:36:18.072Z,5.70
2018-05-08T01:38:46.221Z,5.03
2018-05-08T01:41:14.385Z,4.77
2018-05-08T01:43:43.314Z,5.50
2018-05-08T01:46:11.486Z,5.00
2018-05-08T01:48:39.629Z,5.30
2018-05-08T01:51:08.554Z,5.40
2018-05-08T01:53:36.732Z,6.07
2018-05-08T01:56:04.950Z,5.17
2018-05-08T01:58:33.131Z,5.97
2018-05-08T02:01:02.057Z,5.17
2018-05-08T02:03:30.258Z,6.30
2018-05-08T02:05:58.468Z,5.90
2018-05-08T02:08:27.448Z,5.90
2018-05-08T02:10:56.382Z,6.27
2018-05-08T02:13:24.539Z,5.63
2018-05-08T02:15:52.698Z,5.23
2018-05-08T02:18:21.671Z,5.30
2018-05-08T02:20:49.817Z,6.27
2018-05-08T02:23:17.971Z,5.90
2018-05-08T02:25:46.110Z,5.20
2018-05-08T02:28:14.262Z,6.20
2018-05-08T02:30:43.158Z,6.10
2018-05-08T02:33:12.118Z,5.13
2018-05-08T02:35:40.286Z,5.20
2018-05-08T02:38:08.448Z,6.10
2018-05-08T02:40:36.670Z,5.33
2018-05-08T02:43:06.349Z,5.90
2018-05-08T02:45:34.533Z,5.63
2018-05-08T02:48:02.683Z,6.60
2018-05-08T02:50:30.837Z,5.80
2018-05-08T02:52:58.990Z,6.20
2018-05-08T02:55:27.179Z,5.90
2018-05-08T02:57:55.827Z,6.80
2018-05-08T03:00:24.119Z,6.03
2018-05-08T03:02:52.292Z,6.17
2018-05-08T03:05:20.475Z,7.90
2018-05-08T03:07:48.682Z,7.30
2018-05-08T03:10:16.836Z,6.17
2018-05-08T03:12:44.996Z,7.03
2018-05-08T03:15:13.206Z,7.07
2018-05-08T03:17:41.436Z,6.30
2018-05-08T03:20:09.648Z,6.77
2018-05-08T03:22:37.780Z,6.37
2018-05-08T03:25:05.961Z,6.80
2018-05-08T03:27:34.094Z,7.20
2018-05-08T03:30:02.263Z,6.80
2018-05-08T03:32:30.421Z,6.30
2018-05-08T03:34:58.566Z,7.50
2018-05-08T03:37:26.833Z,6.50
2018-05-08T03:39:54.994Z,7.63
2018-05-08T03:42:23.199Z,6.30
2018-05-08T03:44:51.356Z,5.97
2018-05-08T03:47:19.534Z,7.50
2018-05-08T03:49:47.688Z,7.50
2018-05-08T03:52:15.907Z,6.70
2018-05-08T03:54:44.050Z,6.40
2018-05-08T03:57:12.220Z,6.50
2018-05-08T03:59:40.398Z,6.30
2018-05-08T04:02:26.123Z,7.07
2018-05-08T04:05:11.982Z,6.50
2018-05-08T04:07:57.695Z,7.20
2018-05-08T04:10:25.867Z,6.97
2018-05-08T04:12:54.015Z,8.60
2018-05-08T04:15:22.168Z,6.10
2018-05-08T04:17:50.382Z,6.93
2018-05-08T04:20:18.516Z,6.97
2018-05-08T04:22:46.650Z,6.70
2018-05-08T04:25:15.616Z,7.57
2018-05-08T04:27:43.756Z,7.10
2018-05-08T04:30:11.880Z,7.33
2018-05-08T04:32:40.064Z,7.60
2018-05-08T04:35:08.262Z,8.50
2018-05-08T04:37:36.425Z,6.40
2018-05-08T04:40:04.587Z,7.47
2018-05-08T04:42:32.775Z,6.93
2018-05-08T04:45:00.918Z,6.67
2018-05-08T04:47:29.135Z,7.17
2018-05-08T04:49:57.228Z,6.50
2018-05-08T04:52:25.423Z,6.60
2018-05-08T04:54:53.595Z,7.03
2018-05-08T04:57:21.750Z,8.17
2018-05-08T04:59:49.903Z,7.20
2018-05-08T05:02:18.065Z,7.07
2018-05-08T05:04:46.241Z,7.97
2018-05-08T05:07:14.444Z,6.57
2018-05-08T05:09:42.639Z,7.17
2018-05-08T05:12:11.599Z,6.50
2018-05-08T05:14:39.773Z,6.20
2018-05-08T05:17:07.987Z,6.70
2018-05-08T05:19:36.120Z,6.77
2018-05-08T05:22:04.296Z,6.87
2018-05-08T05:24:32.480Z,6.70
2018-05-08T05:27:00.646Z,7.00
2018-05-08T05:29:28.789Z,6.80
2018-05-08T05:31:56.953Z,7.27
2018-05-08T05:34:25.095Z,5.90
2018-05-08T05:36:53.255Z,6.70
2018-05-08T05:39:21.421Z,5.70
2018-05-08T05:41:49.618Z,5.87
2018-05-08T05:44:17.791Z,6.50
2018-05-08T05:46:46.926Z,5.57
2018-05-08T05:49:15.100Z,5.73
2018-05-08T05:51:43.242Z,6.03
2018-05-08T05:54:11.412Z,5.40
2018-05-08T05:56:40.371Z,5.83
2018-05-08T05:59:08.510Z,5.00
2018-05-08T06:01:36.661Z,5.60
2018-05-08T06:04:04.833Z,5.53
2018-05-08T06:06:33.008Z,4.83
2018-05-08T06:09:01.190Z,5.60
2018-05-08T06:11:29.392Z,5.10
2018-05-08T06:13:57.579Z,6.07
2018-05-08T06:16:25.763Z,4.80
2018-05-08T06:18:53.973Z,5.40
2018-05-08T06:21:22.109Z,5.27
2018-05-08T06:23:50.286Z,5.37
2018-05-08T06:26:18.512Z,5.33
2018-05-08T06:28:46.668Z,4.50
2018-05-08T06:31:14.830Z,4.60
2018-05-08T06:33:43.755Z,5.23
2018-05-08T06:36:11.938Z,4.80
2018-05-08T06:38:40.106Z,5.10
2018-05-08T06:41:08.277Z,4.63
2018-05-08T06:43:36.393Z,4.30
2018-05-08T06:46:04.528Z,5.70
2018-05-08T06:48:32.681Z,4.97
2018-05-08T06:51:02.254Z,5.23
2018-05-08T06:53:31.183Z,4.60
2018-05-08T06:55:59.322Z,4.80
2018-05-08T06:58:28.269Z,4.77
2018-05-08T07:00:56.387Z,4.37
2018-05-08T07:03:24.586Z,4.77
2018-05-08T07:05:52.738Z,5.10
2018-05-08T07:08:21.691Z,4.27
2018-05-08T07:10:49.853Z,4.73
2018-05-08T07:13:17.994Z,4.10
2018-05-08T07:15:46.176Z,4.83
2018-05-08T07:18:15.063Z,4.53
2018-05-08T07:20:43.209Z,4.07
2018-05-08T07:23:11.384Z,3.97
2018-05-08T07:25:39.513Z,4.13
2018-05-08T07:28:07.664Z,4.57
2018-05-08T07:30:35.828Z,5.27
2018-05-08T07:33:03.963Z,5.90
2018-05-08T07:35:32.121Z,3.57
2018-05-08T07:38:01.030Z,4.90
2018-05-08T07:40:29.967Z,4.40
2018-05-08T07:42:58.123Z,4.00
2018-05-08T07:45:26.383Z,4.70
2018-05-08T07:47:54.538Z,3.63
2018-05-08T07:50:23.412Z,4.20
2018-05-08T07:52:52.610Z,3.90
2018-05-08T07:55:21.529Z,3.53
2018-05-08T07:57:49.689Z,3.90
2018-05-08T08:00:17.949Z,4.17
2018-05-08T08:02:46.834Z,4.13
2018-05-08T08:05:15.779Z,3.53
2018-05-08T08:07:43.910Z,3.50
2018-05-08T08:10:12.060Z,4.53
2018-05-08T08:12:40.245Z,3.27
2018-05-08T08:15:09.164Z,3.03
2018-05-08T08:17:37.324Z,3.13
2018-05-08T08:20:05.495Z,3.27
2018-05-08T08:22:34.386Z,3.43
2018-05-08T08:25:03.418Z,3.70
2018-05-08T08:27:31.713Z,4.00
2018-05-08T08:30:00.032Z,3.93
2018-05-08T08:32:28.958Z,3.77
2018-05-08T08:34:57.106Z,3.70
2018-05-08T08:37:25.236Z,4.03
2018-05-08T08:39:53.398Z,3.17
2018-05-08T08:42:21.579Z,3.00
2018-05-08T08:44:49.731Z,3.20
2018-05-08T08:47:18.178Z,3.83
2018-05-08T08:49:46.364Z,2.60
2018-05-08T08:52:14.568Z,2.63
2018-05-08T08:54:42.706Z,2.97
2018-05-08T08:57:10.933Z,2.80
2018-05-08T08:59:39.079Z,2.73
2018-05-08T09:02:07.283Z,2.60
2018-05-08T09:04:35.562Z,2.37
2018-05-08T09:07:03.741Z,3.00
2018-05-08T09:09:32.672Z,2.57
2018-05-08T09:12:00.847Z,2.87
2018-05-08T09:14:29.036Z,2.70
2018-05-08T09:16:57.166Z,2.33
2018-05-08T09:19:26.101Z,2.50
2018-05-08T09:21:54.322Z,2.10
2018-05-08T09:24:22.489Z,2.50
2018-05-08T09:26:51.401Z,2.80
2018-05-08T09:29:19.540Z,2.10
2018-05-08T09:31:47.724Z,2.20
2018-05-08T09:34:15.878Z,2.67
2018-05-08T09:36:44.058Z,2.90
2018-05-08T09:39:12.266Z,2.40
2018-05-08T09:41:40.410Z,2.20
2018-05-08T09:44:09.383Z,3.10
2018-05-08T09:46:37.525Z,2.50
2018-05-08T09:49:05.717Z,3.20
2018-05-08T09:51:34.673Z,3.43
2018-05-08T09:54:02.838Z,3.50
2018-05-08T09:56:31.127Z,2.30
2018-05-08T09:58:59.278Z,3.20
2018-05-08T10:01:27.422Z,2.50
2018-05-08T10:03:55.614Z,2.37
2018-05-08T10:06:24.530Z,2.60
2018-05-08T10:08:52.671Z,2.50
2018-05-08T10:11:21.616Z,2.37
2018-05-08T10:13:49.753Z,3.23
2018-05-08T10:16:18.813Z,3.07
2018-05-08T10:18:46.980Z,2.63
2018-05-08T10:21:15.164Z,2.67
2018-05-08T10:23:43.327Z,2.90
2018-05-08T10:26:12.286Z,2.20
2018-05-08T10:28:40.531Z,2.87
2018-05-08T10:31:08.648Z,2.30
2018-05-08T10:33:36.882Z,2.77
2018-05-08T10:36:05.026Z,2.30
2018-05-08T10:38:33.201Z,2.23
2018-05-08T10:41:01.529Z,1.50
2018-05-08T10:43:29.669Z,1.83
2018-05-08T10:45:57.822Z,2.20
2018-05-08T10:48:26.146Z,2.00
2018-05-08T10:50:54.504Z,2.23
2018-05-08T10:53:22.707Z,2.30
2018-05-08T10:55:50.871Z,1.90
2018-05-08T10:58:19.032Z,1.97
2018-05-08T11:00:47.167Z,2.00
2018-05-08T11:03:16.090Z,2.60
2018-05-08T11:05:44.272Z,2.03
2018-05-08T11:08:12.407Z,2.47
2018-05-08T11:10:41.329Z,1.77
2018-05-08T11:13:09.495Z,1.90
2018-05-08T11:15:37.634Z,2.30
2018-05-08T11:18:05.772Z,2.40
2018-05-08T11:20:33.946Z,2.23
2018-05-08T11:23:02.218Z,2.03
2018-05-08T11:25:30.541Z,2.37
2018-05-08T11:27:59.297Z,1.77
2018-05-08T11:30:27.563Z,2.13
2018-05-08T11:32:55.797Z,1.93
2018-05-08T11:35:23.985Z,1.57
2018-05-08T11:37:52.128Z,2.03
2018-05-08T11:40:20.299Z,2.00
2018-05-08T11:42:48.467Z,1.50
2018-05-08T11:45:17.418Z,2.00
2018-05-08T11:47:45.650Z,2.30
2018-05-08T11:50:13.787Z,2.73
2018-05-08T11:52:41.939Z,2.00
2018-05-08T11:55:10.186Z,1.70
2018-05-08T11:57:38.368Z,1.53
2018-05-08T12:00:06.677Z,2.33
2018-05-08T12:02:34.860Z,1.97
2018-05-08T12:05:03.067Z,1.70
2018-05-08T12:07:31.215Z,2.03
2018-05-08T12:09:59.482Z,2.10
2018-05-08T12:12:27.740Z,2.00
2018-05-08T12:14:55.975Z,2.20
2018-05-08T12:17:24.087Z,2.53
2018-05-08T12:19:52.243Z,2.20
2018-05-08T12:22:20.534Z,2.30
2018-05-08T12:24:48.676Z,1.90
2018-05-08T12:27:16.983Z,2.23
2018-05-08T12:29:45.175Z,2.10
2018-05-08T12:32:13.370Z,1.70
2018-05-08T12:34:42.466Z,2.00
2018-05-08T12:37:10.622Z,2.27
2018-05-08T12:39:39.669Z,2.17
2018-05-08T12:42:07.837Z,2.47
2018-05-08T12:44:36.003Z,2.00
2018-05-08T12:47:04.221Z,2.37
2018-05-08T12:49:32.426Z,1.90
2018-05-08T12:52:00.741Z,1.80
2018-05-08T12:54:29.022Z,1.63
2018-05-08T12:56:57.185Z,2.13
2018-05-08T12:59:25.438Z,3.57
2018-05-08T13:01:53.644Z,1.63
2018-05-08T13:04:21.883Z,1.90
2018-05-08T13:06:50.169Z,2.00
2018-05-08T13:09:18.332Z,1.30
2018-05-08T13:11:46.530Z,3.43
2018-05-08T13:14:15.344Z,1.47
2018-05-08T13:16:43.593Z,1.90
2018-05-08T13:19:11.737Z,1.67
2018-05-08T13:21:39.885Z,1.87
2018-05-08T13:24:08.097Z,1.77
2018-05-08T13:26:36.229Z,1.67
2018-05-08T13:29:04.363Z,1.53
2018-05-08T13:31:32.719Z,1.70
2018-05-08T13:34:00.862Z,1.80
2018-05-08T13:36:29.138Z,1.87
2018-05-08T13:38:57.439Z,1.80
2018-05-08T13:41:25.596Z,2.30
2018-05-08T13:43:53.742Z,1.80
2018-05-08T13:46:21.979Z,2.07
2018-05-08T13:48:50.134Z,1.93
2018-05-08T13:51:18.349Z,1.70
2018-05-08T13:53:46.569Z,3.57
2018-05-08T13:56:14.733Z,1.70
2018-05-08T13:58:42.996Z,1.90
2018-05-08T14:01:11.902Z,2.10
2018-05-08T14:03:40.847Z,1.77
2018-05-08T14:06:08.998Z,2.20
2018-05-08T14:08:37.219Z,1.70
2018-05-08T14:11:05.470Z,2.07
2018-05-08T14:13:33.624Z,2.10
2018-05-08T14:16:01.830Z,1.90
2018-05-08T14:18:30.163Z,2.20
2018-05-08T14:20:58.353Z,1.93
2018-05-08T14:23:26.540Z,2.40
2018-05-08T14:25:54.723Z,2.37
2018-05-08T14:28:22.883Z,1.20
2018-05-08T14:30:51.015Z,1.30
2018-05-08T14:33:19.173Z,1.67
2018-05-08T14:35:48.126Z,1.63
2018-05-08T14:38:16.255Z,1.80
2018-05-08T14:40:44.395Z,2.20
2018-05-08T14:43:13.319Z,2.50
2018-05-08T14:45:41.472Z,1.70
2018-05-08T14:48:09.621Z,1.73
2018-05-08T14:50:37.911Z,1.47
2018-05-08T14:53:06.097Z,1.50
2018-05-08T14:55:34.338Z,2.20
2018-05-08T14:58:02.478Z,1.80
2018-05-08T15:00:30.669Z,1.70
2018-05-08T15:02:58.800Z,2.30
2018-05-08T15:05:26.957Z,1.57
2018-05-08T15:07:55.111Z,1.47
2018-05-08T15:10:23.307Z,1.30
2018-05-08T15:12:51.596Z,2.10
2018-05-08T15:15:19.758Z,2.27
2018-05-08T15:17:48.197Z,1.70
2018-05-08T15:20:16.317Z,2.13
2018-05-08T15:22:44.480Z,1.70
2018-05-08T15:25:12.623Z,2.03
2018-05-08T15:27:40.823Z,2.20
2018-05-08T15:30:09.967Z,1.60
2018-05-08T15:32:39.165Z,1.90
2018-05-08T15:35:07.339Z,2.13
2018-05-08T15:37:35.473Z,1.97
2018-05-08T15:40:03.606Z,1.90
2018-05-08T15:42:31.779Z,1.70
2018-05-08T15:44:59.913Z,1.70
2018-05-08T15:47:28.061Z,1.67
2018-05-08T15:49:56.201Z,2.47
2018-05-08T15:52:24.376Z,2.33
2018-05-08T15:54:53.280Z,2.10
2018-05-08T15:57:22.245Z,2.10
2018-05-08T15:59:50.377Z,2.30
2018-05-08T16:02:18.568Z,1.80
2018-05-08T16:04:46.760Z,2.27
2018-05-08T16:07:14.966Z,1.80
2018-05-08T16:09:43.153Z,2.27
2018-05-08T16:12:11.314Z,2.00
2018-05-08T16:14:40.229Z,1.83
2018-05-08T16:17:08.400Z,2.30
2018-05-08T16:19:36.544Z,2.10
2018-05-08T16:22:05.463Z,1.93
2018-05-08T16:24:33.655Z,1.50
2018-05-08T16:27:01.832Z,1.90
2018-05-08T16:29:29.967Z,2.00
2018-05-08T16:31:58.137Z,2.77
2018-05-08T16:34:26.263Z,2.37
2018-05-08T16:36:54.415Z,3.87
2018-05-08T16:39:22.794Z,2.10
2018-05-08T16:41:51.642Z,1.60
2018-05-08T16:44:20.567Z,2.10
2018-05-08T16:46:48.799Z,2.03
2018-05-08T16:49:17.695Z,1.60
2018-05-08T16:51:45.833Z,2.20
2018-05-08T16:54:13.974Z,2.10
2018-05-08T16:56:42.101Z,1.87
2018-05-08T16:59:10.272Z,1.90
2018-05-08T17:01:39.210Z,1.90
2018-05-08T17:04:07.404Z,2.10
2018-05-08T17:06:35.570Z,2.60
2018-05-08T17:09:03.728Z,2.50
2018-05-08T17:11:31.921Z,2.10
2018-05-08T17:14:00.173Z,2.17
2018-05-08T17:16:28.361Z,2.70
2018-05-08T17:18:56.739Z,2.10
2018-05-08T17:21:24.920Z,2.17
2018-05-08T17:23:53.086Z,2.10
2018-05-08T17:26:21.232Z,2.20
2018-05-08T17:28:49.425Z,2.23
2018-05-08T17:31:17.650Z,2.00
2018-05-08T17:33:46.562Z,1.53
2018-05-08T17:36:14.730Z,1.73
2018-05-08T17:38:42.877Z,1.80
2018-05-08T17:41:11.790Z,2.27
2018-05-08T17:43:39.922Z,2.23
2018-05-08T17:46:08.072Z,2.60
2018-05-08T17:48:36.249Z,2.07
2018-05-08T17:51:06.014Z,2.37
2018-05-08T17:53:34.937Z,2.17
2018-05-08T17:56:03.282Z,2.47
2018-05-08T17:58:31.466Z,2.80
2018-05-08T18:00:59.628Z,2.20
2018-05-08T18:03:27.908Z,1.67
2018-05-08T18:05:56.095Z,1.70
2018-05-08T18:08:24.268Z,2.00
2018-05-08T18:10:52.420Z,2.43
2018-05-08T18:13:21.433Z,2.90
2018-05-08T18:15:49.573Z,2.53
2018-05-08T18:18:18.510Z,2.77
2018-05-08T18:20:46.674Z,2.03
2018-05-08T18:23:14.813Z,2.07
2018-05-08T18:25:43.839Z,2.70
2018-05-08T18:28:11.933Z,2.20
2018-05-08T18:30:40.107Z,2.33
2018-05-08T18:33:08.304Z,2.03
2018-05-08T18:35:36.519Z,2.07
2018-05-08T18:38:04.656Z,3.43
2018-05-08T18:40:32.818Z,2.97
2018-05-08T18:43:00.980Z,3.10
2018-05-08T18:45:29.121Z,2.80
2018-05-08T18:47:57.250Z,2.00
2018-05-08T18:50:26.175Z,2.30
2018-05-08T18:52:54.349Z,2.23
2018-05-08T18:55:22.507Z,2.10
2018-05-08T18:57:51.399Z,3.73
2018-05-08T19:00:21.447Z,2.40
2018-05-08T19:02:49.512Z,2.50
2018-05-08T19:05:17.697Z,2.20
2018-05-08T19:07:45.879Z,2.70
2018-05-08T19:10:14.071Z,2.30
2018-05-08T19:12:42.355Z,2.07
2018-05-08T19:15:16.882Z,2.20
2018-05-08T19:17:45.900Z,2.43
2018-05-08T19:20:14.123Z,2.30
2018-05-08T19:22:42.287Z,2.33
2018-05-08T19:25:10.431Z,2.20
2018-05-08T19:27:38.577Z,2.17
2018-05-08T19:30:12.117Z,2.63
2018-05-08T19:32:40.303Z,2.30
2018-05-08T19:35:13.928Z,2.63
2018-05-08T19:37:47.595Z,3.50
2018-05-08T19:40:16.585Z,2.30
2018-05-08T19:42:44.729Z,2.30
2018-05-08T19:45:12.880Z,2.23
2018-05-08T19:47:41.787Z,2.57
2018-05-08T19:50:09.960Z,2.60
2018-05-08T19:52:38.148Z,2.53
2018-05-08T19:55:06.315Z,3.03
2018-05-08T19:57:35.214Z,3.70
2018-05-08T20:00:03.364Z,3.50
2018-05-08T20:02:32.286Z,3.47
2018-05-08T20:05:01.027Z,2.67
2018-05-08T20:07:29.211Z,2.90
2018-05-08T20:09:57.562Z,2.37
2018-05-08T20:12:25.749Z,2.43
2018-05-08T20:14:54.741Z,2.60
2018-05-08T20:17:23.765Z,2.50
2018-05-08T20:19:51.928Z,2.67
2018-05-08T20:22:20.916Z,2.50
2018-05-08T20:24:49.053Z,2.73
2018-05-08T20:27:17.236Z,3.07
2018-05-08T20:29:45.371Z,2.90
2018-05-08T20:32:13.566Z,2.30
2018-05-08T20:34:41.751Z,2.53
2018-05-08T20:37:09.910Z,2.70
2018-05-08T20:39:38.072Z,2.20
2018-05-08T20:42:06.228Z,2.17
2018-05-08T20:44:34.388Z,2.47
2018-05-08T20:47:02.560Z,3.50
2018-05-08T20:49:30.761Z,3.00
2018-05-08T20:51:58.941Z,2.80
2018-05-08T20:54:27.856Z,2.77
2018-05-08T20:56:56.046Z,3.23
2018-05-08T20:59:24.182Z,2.60
2018-05-08T21:01:52.341Z,2.60
2018-05-08T21:04:20.470Z,3.47
2018-05-08T21:06:48.640Z,3.00
2018-05-08T21:09:17.572Z,3.47
2018-05-08T21:11:45.710Z,2.90
2018-05-08T21:14:13.867Z,2.60
2018-05-08T21:16:42.815Z,2.63
2018-05-08T21:19:11.019Z,3.93
2018-05-08T21:21:39.160Z,3.17
2018-05-08T21:24:07.316Z,3.57
2018-05-08T21:26:35.835Z,2.90
2018-05-08T21:29:04.011Z,2.90
2018-05-08T21:31:32.227Z,3.47
2018-05-08T21:34:00.360Z,2.80
2018-05-08T21:36:28.491Z,3.00
2018-05-08T21:38:56.638Z,2.83
2018-05-08T21:41:24.783Z,2.70
2018-05-08T21:43:52.946Z,2.77
2018-05-08T21:46:21.063Z,3.00
2018-05-08T21:48:49.178Z,2.70
2018-05-08T21:51:17.330Z,3.23
2018-05-08T21:53:45.494Z,3.33
2018-05-08T21:56:13.670Z,2.50
2018-05-08T21:58:41.862Z,3.10
2018-05-08T22:01:10.555Z,2.60
2018-05-08T22:03:38.711Z,3.10
2018-05-08T22:06:06.900Z,3.20
2018-05-08T22:08:35.055Z,3.77
2018-05-08T22:11:03.270Z,2.90
2018-05-08T22:13:32.161Z,2.93
2018-05-08T22:16:00.306Z,2.90
2018-05-08T22:18:28.437Z,3.47
2018-05-08T22:20:56.583Z,3.30
2018-05-08T22:23:24.706Z,2.93
2018-05-08T22:25:52.836Z,2.77
2018-05-08T22:28:20.979Z,2.73
2018-05-08T22:30:49.141Z,2.80
2018-05-08T22:33:17.276Z,2.53
2018-05-08T22:35:45.502Z,3.43
2018-05-08T22:38:13.646Z,2.60
2018-05-08T22:40:41.758Z,2.70
2018-05-08T22:43:10.676Z,2.60
2018-05-08T22:45:38.817Z,2.80
2018-05-08T22:48:07.744Z,3.10
2018-05-08T22:50:35.900Z,2.90
2018-05-08T22:53:04.033Z,2.17
2018-05-08T22:55:32.177Z,1.90
2018-05-08T22:58:00.297Z,2.60
2018-05-08T23:00:28.486Z,2.30
2018-05-08T23:02:57.381Z,2.27
2018-05-08T23:05:25.521Z,2.40
2018-05-08T23:07:53.675Z,2.80
2018-05-08T23:10:21.875Z,2.47
2018-05-08T23:12:50.010Z,2.77
2018-05-08T23:15:18.149Z,2.60
2018-05-08T23:17:46.268Z,2.73
2018-05-08T23:20:14.396Z,2.43
2018-05-08T23:22:42.518Z,2.50
2018-05-08T23:25:10.689Z,2.83
2018-05-08T23:27:38.824Z,2.90
2018-05-08T23:30:06.986Z,2.50
2018-05-08T23:32:35.129Z,3.23
2018-05-08T23:35:03.271Z,3.20
2018-05-08T23:37:31.416Z,2.70
2018-05-08T23:39:59.627Z,3.07
2018-05-08T23:42:28.038Z,3.10
2018-05-08T23:44:56.946Z,2.80
2018-05-08T23:47:25.085Z,2.33
2018-05-08T23:49:53.992Z,2.57
2018-05-08T23:52:22.921Z,2.97
2018-05-08T23:54:51.051Z,3.53
2018-05-08T23:57:19.201Z,2.70
2018-05-08T23:59:47.355Z,3.30
